createdAt,value
2019-02-10T00:02:18.825Z,9.80
2019-02-10T00:04:52.403Z,9.13
2019-02-10T00:07:26.021Z,8.17
2019-02-10T00:09:59.682Z,8.07
2019-02-10T00:12:34.737Z,6.40
2019-02-10T00:15:08.877Z,6.50
2019-02-10T00:17:42.499Z,9.30
2019-02-10T00:20:16.223Z,8.47
2019-02-10T00:22:50.042Z,9.67
2019-02-10T00:25:23.845Z,8.53
2019-02-10T00:27:57.669Z,7.67
2019-02-10T00:30:31.379Z,8.60
2019-02-10T00:33:05.145Z,9.67
2019-02-10T00:35:38.881Z,6.77
2019-02-10T00:38:12.475Z,11.47
2019-02-10T00:40:46.065Z,7.83
2019-02-10T00:43:19.671Z,7.67
2019-02-10T00:45:53.329Z,9.13
2019-02-10T00:48:26.999Z,9.40
2019-02-10T00:51:00.525Z,3.67
2019-02-10T00:53:34.371Z,6.87
2019-02-10T00:56:07.961Z,4.97
2019-02-10T00:58:41.587Z,6.97
2019-02-10T01:01:15.243Z,5.27
2019-02-10T01:03:49.083Z,5.13
2019-02-10T01:06:22.734Z,4.07
2019-02-10T01:08:56.481Z,4.83
2019-02-10T01:11:30.122Z,4.10
2019-02-10T01:14:03.813Z,8.23
2019-02-10T01:16:37.397Z,4.77
2019-02-10T01:19:11.082Z,10.90
2019-02-10T01:21:44.909Z,6.90
2019-02-10T01:24:18.513Z,8.03
2019-02-10T01:26:52.117Z,7.43
2019-02-10T01:29:25.699Z,9.97
2019-02-10T01:31:59.379Z,11.53
2019-02-10T01:34:32.983Z,7.57
2019-02-10T01:37:06.715Z,9.53
2019-02-10T01:39:40.295Z,7.53
2019-02-10T01:42:14.118Z,12.50
2019-02-10T01:44:47.709Z,10.40
2019-02-10T01:47:21.333Z,11.43
2019-02-10T01:49:54.925Z,12.20
2019-02-10T01:52:28.531Z,13.33
2019-02-10T01:55:02.407Z,8.37
2019-02-10T02:01:03.509Z,11.87
2019-02-10T02:03:37.218Z,10.60
2019-02-10T02:06:10.821Z,12.20
2019-02-10T02:08:44.513Z,10.83
2019-02-10T02:11:18.089Z,11.37
2019-02-10T02:17:18.776Z,11.50
2019-02-10T02:19:53.011Z,13.23
2019-02-10T02:22:27.111Z,16.07
2019-02-10T02:25:00.841Z,13.30
2019-02-10T02:27:34.515Z,8.60
2019-02-10T02:33:54.505Z,7.33
2019-02-10T02:36:28.085Z,9.37
2019-02-10T02:39:01.721Z,10.77
2019-02-10T02:41:35.275Z,14.40
2019-02-10T02:44:08.877Z,7.70
2019-02-10T02:46:42.464Z,8.90
2019-02-10T02:49:16.043Z,11.07
2019-02-10T02:51:49.674Z,8.30
2019-02-10T02:54:23.259Z,13.43
2019-02-10T02:56:56.867Z,12.80
2019-02-10T02:59:30.450Z,13.13
2019-02-10T03:02:04.072Z,12.00
2019-02-10T03:04:37.666Z,10.13
2019-02-10T03:07:17.801Z,11.97
2019-02-10T03:09:46.635Z,12.63
2019-02-10T03:12:20.285Z,10.50
2019-02-10T03:14:55.451Z,14.37
2019-02-10T03:17:29.429Z,7.03
2019-02-10T03:20:03.164Z,14.97
2019-02-10T03:22:36.949Z,9.27
2019-02-10T03:25:10.585Z,9.20
2019-02-10T03:27:44.208Z,10.93
2019-02-10T03:30:20.776Z,11.97
2019-02-10T03:32:54.395Z,10.67
2019-02-10T03:35:27.994Z,11.00
2019-02-10T03:38:01.576Z,10.57
2019-02-10T03:40:35.202Z,8.47
2019-02-10T03:46:50.135Z,13.80
2019-02-10T03:49:23.730Z,11.17
2019-02-10T03:51:59.406Z,10.40
2019-02-10T03:54:34.598Z,12.17
2019-02-10T03:57:08.268Z,11.60
2019-02-10T04:03:19.346Z,9.20
2019-02-10T04:05:53.022Z,14.03
2019-02-10T04:08:26.615Z,12.73
2019-02-10T04:11:00.267Z,11.33
2019-02-10T04:13:33.921Z,13.40
2019-02-10T04:16:08.317Z,14.47
2019-02-10T04:18:41.887Z,9.87
2019-02-10T04:21:15.517Z,12.43
2019-02-10T04:23:49.109Z,10.97
2019-02-10T04:26:22.742Z,12.37
2019-02-10T04:28:56.397Z,8.60
2019-02-10T04:31:30.016Z,13.47
2019-02-10T04:34:03.614Z,9.97
2019-02-10T04:36:37.240Z,13.17
2019-02-10T04:39:10.964Z,11.83
2019-02-10T04:41:44.587Z,11.23
2019-02-10T04:44:18.174Z,8.73
2019-02-10T04:46:51.792Z,13.93
2019-02-10T04:49:25.396Z,8.53
2019-02-10T04:51:58.994Z,8.70
2019-02-10T04:54:32.580Z,9.73
2019-02-10T04:57:06.254Z,13.83
2019-02-10T04:59:39.833Z,15.23
2019-02-10T05:02:13.513Z,13.67
2019-02-10T05:04:47.142Z,11.67
2019-02-10T05:07:20.718Z,14.00
2019-02-10T05:09:54.363Z,9.93
2019-02-10T05:12:27.952Z,14.33
2019-02-10T05:15:01.607Z,13.00
2019-02-10T05:17:35.166Z,12.87
2019-02-10T05:20:08.935Z,11.30
2019-02-10T05:22:42.518Z,8.27
2019-02-10T05:25:16.178Z,11.47
2019-02-10T05:27:49.732Z,13.47
2019-02-10T05:30:23.356Z,13.23
2019-02-10T05:32:56.944Z,10.50
2019-02-10T05:35:30.570Z,15.17
2019-02-10T05:38:04.733Z,13.00
2019-02-10T05:40:38.453Z,15.07
2019-02-10T05:43:12.054Z,9.60
2019-02-10T05:45:45.666Z,10.50
2019-02-10T05:48:19.254Z,14.23
2019-02-10T05:50:52.946Z,14.13
2019-02-10T05:53:26.531Z,9.70
2019-02-10T05:56:00.158Z,14.67
2019-02-10T05:58:33.787Z,8.27
2019-02-10T06:01:43.933Z,13.63
2019-02-10T06:04:17.529Z,14.73
2019-02-10T06:06:51.396Z,17.37
2019-02-10T06:09:24.965Z,10.27
2019-02-10T06:12:01.098Z,10.93
2019-02-10T06:18:20.806Z,10.33
2019-02-10T06:20:54.415Z,18.97
2019-02-10T06:23:27.988Z,13.17
2019-02-10T06:26:01.601Z,16.63
2019-02-10T06:28:35.281Z,15.27
2019-02-10T06:34:55.178Z,18.83
2019-02-10T06:37:28.836Z,14.33
2019-02-10T06:40:02.525Z,10.63
2019-02-10T06:42:37.750Z,15.43
2019-02-10T06:45:11.617Z,13.03
2019-02-10T06:47:45.244Z,10.80
2019-02-10T06:50:18.850Z,14.80
2019-02-10T06:52:53.117Z,10.97
2019-02-10T06:55:28.358Z,14.00
2019-02-10T06:58:02.004Z,12.07
2019-02-10T07:00:40.027Z,13.23
2019-02-10T07:03:37.598Z,9.90
2019-02-10T07:06:12.927Z,9.10
2019-02-10T07:08:46.604Z,13.43
2019-02-10T07:11:20.291Z,12.27
2019-02-10T07:13:56.328Z,8.60
2019-02-10T07:16:33.008Z,13.10
2019-02-10T07:19:42.957Z,15.77
2019-02-10T07:22:35.059Z,9.77
2019-02-10T07:25:17.572Z,14.80
2019-02-10T07:27:57.215Z,18.17
2019-02-10T07:31:25.193Z,12.13
2019-02-10T07:34:11.677Z,13.13
2019-02-10T07:37:00.261Z,9.87
2019-02-10T07:39:39.745Z,13.57
2019-02-10T07:42:49.825Z,10.70
2019-02-10T07:45:44.334Z,13.67
2019-02-10T07:48:20.994Z,10.80
2019-02-10T07:51:06.042Z,13.23
2019-02-10T07:56:50.619Z,10.73
2019-02-10T07:59:42.643Z,10.40
2019-02-10T08:02:25.414Z,11.67
2019-02-10T08:05:05.079Z,9.00
2019-02-10T08:07:50.539Z,11.93
2019-02-10T08:10:45.496Z,11.17
2019-02-10T08:13:33.708Z,15.87
2019-02-10T08:16:39.139Z,10.70
2019-02-10T08:22:19.012Z,12.20
2019-02-10T08:24:58.345Z,10.67
2019-02-10T08:27:50.711Z,17.03
2019-02-10T08:30:30.519Z,12.77
2019-02-10T08:33:10.032Z,12.00
2019-02-10T08:35:52.439Z,9.50
2019-02-10T08:38:32.125Z,15.70
2019-02-10T08:41:26.900Z,10.73
2019-02-10T08:44:15.683Z,12.23
2019-02-10T08:47:01.189Z,11.80
2019-02-10T08:49:52.655Z,10.43
2019-02-10T08:52:41.272Z,9.67
2019-02-10T08:55:15.034Z,11.23
2019-02-10T08:57:48.715Z,14.03
2019-02-10T09:00:22.365Z,15.33
2019-02-10T09:02:56.074Z,10.17
2019-02-10T09:05:29.682Z,13.63
2019-02-10T09:08:03.693Z,12.70
2019-02-10T09:10:37.333Z,16.43
2019-02-10T09:13:11.051Z,12.13
2019-02-10T09:15:47.665Z,10.13
2019-02-10T09:18:21.259Z,18.33
2019-02-10T09:20:54.987Z,12.30
2019-02-10T09:23:28.573Z,15.03
2019-02-10T09:26:02.226Z,13.50
2019-02-10T09:28:35.818Z,15.03
2019-02-10T09:31:09.429Z,14.33
2019-02-10T09:33:43.097Z,10.00
2019-02-10T09:36:16.847Z,11.20
2019-02-10T09:38:50.553Z,9.30
2019-02-10T09:41:24.170Z,14.20
2019-02-10T09:43:57.805Z,15.53
2019-02-10T09:46:31.541Z,14.70
2019-02-10T09:49:05.719Z,12.53
2019-02-10T09:51:39.301Z,12.57
2019-02-10T09:54:12.933Z,10.37
2019-02-10T09:56:46.594Z,10.07
2019-02-10T09:59:20.199Z,10.30
2019-02-10T10:01:53.887Z,11.77
2019-02-10T10:04:28.497Z,18.83
2019-02-10T10:07:02.129Z,16.73
2019-02-10T10:09:35.719Z,14.00
2019-02-10T10:12:09.327Z,12.10
2019-02-10T10:14:42.954Z,15.63
2019-02-10T10:17:16.567Z,15.67
2019-02-10T10:19:50.217Z,14.00
2019-02-10T10:22:23.921Z,13.00
2019-02-10T10:24:57.509Z,16.57
2019-02-10T10:27:31.144Z,17.30
2019-02-10T10:30:10.933Z,13.60
2019-02-10T10:32:44.643Z,12.10
2019-02-10T10:35:18.276Z,14.87
2019-02-10T10:37:51.858Z,12.33
2019-02-10T10:40:25.444Z,11.00
2019-02-10T10:42:59.035Z,14.23
2019-02-10T10:45:32.647Z,17.10
2019-02-10T10:48:06.307Z,9.80
2019-02-10T10:50:39.940Z,11.73
2019-02-10T10:53:13.510Z,12.73
2019-02-10T10:55:47.209Z,10.37
2019-02-10T10:58:20.885Z,15.27
2019-02-10T11:00:54.491Z,13.83
2019-02-10T11:03:28.121Z,19.50
2019-02-10T11:06:01.755Z,17.30
2019-02-10T11:08:35.417Z,11.10
2019-02-10T11:11:09.040Z,12.83
2019-02-10T11:13:42.717Z,14.10
2019-02-10T11:16:16.350Z,15.57
2019-02-10T11:18:49.947Z,11.30
2019-02-10T11:21:23.636Z,12.87
2019-02-10T11:23:57.281Z,13.53
2019-02-10T11:26:30.959Z,15.60
2019-02-10T11:29:04.701Z,13.80
2019-02-10T11:31:38.337Z,14.70
2019-02-10T11:34:11.954Z,15.53
2019-02-10T11:36:45.605Z,14.77
2019-02-10T11:39:19.247Z,15.50
2019-02-10T11:41:52.916Z,17.17
2019-02-10T11:44:26.482Z,11.50
2019-02-10T11:47:00.158Z,12.03
2019-02-10T11:49:33.834Z,15.20
2019-02-10T11:52:07.648Z,14.40
2019-02-10T11:54:41.220Z,14.63
2019-02-10T11:57:14.922Z,13.03
2019-02-10T11:59:48.638Z,11.73
2019-02-10T12:02:22.269Z,14.33
2019-02-10T12:04:55.872Z,12.67
2019-02-10T12:07:29.530Z,16.27
2019-02-10T12:10:03.323Z,13.53
2019-02-10T12:12:37.077Z,15.23
2019-02-10T12:15:14.931Z,13.33
2019-02-10T12:17:48.692Z,16.77
2019-02-10T12:20:22.383Z,15.17
2019-02-10T12:22:55.968Z,19.10
2019-02-10T12:25:29.773Z,15.27
2019-02-10T12:28:03.431Z,14.17
2019-02-10T12:30:37.119Z,14.07
2019-02-10T12:33:10.716Z,16.70
2019-02-10T12:35:44.315Z,12.37
2019-02-10T12:38:18.008Z,19.47
2019-02-10T12:40:51.594Z,13.63
2019-02-10T12:43:25.225Z,20.97
2019-02-10T12:45:58.802Z,25.70
2019-02-10T12:48:32.522Z,17.30
2019-02-10T12:51:06.094Z,18.00
2019-02-10T12:53:39.733Z,20.73
2019-02-10T12:56:13.658Z,16.10
2019-02-10T12:58:47.339Z,16.97
2019-02-10T13:01:20.920Z,17.70
2019-02-10T13:03:54.742Z,20.93
2019-02-10T13:06:28.340Z,21.63
2019-02-10T13:09:01.958Z,20.47
2019-02-10T13:11:35.573Z,16.30
2019-02-10T13:14:09.193Z,18.90
2019-02-10T13:16:42.798Z,19.50
2019-02-10T13:19:16.515Z,15.97
2019-02-10T13:21:50.096Z,20.83
2019-02-10T13:24:23.703Z,19.57
2019-02-10T13:26:57.284Z,20.27
2019-02-10T13:29:30.904Z,19.13
2019-02-10T13:32:04.830Z,21.57
2019-02-10T13:34:38.442Z,16.93
2019-02-10T13:37:12.034Z,16.60
2019-02-10T13:39:45.724Z,20.63
2019-02-10T13:42:19.336Z,22.90
2019-02-10T13:44:52.984Z,21.33
2019-02-10T13:47:26.576Z,20.43
2019-02-10T13:50:00.280Z,17.73
2019-02-10T13:52:33.863Z,23.77
2019-02-10T13:55:10.048Z,20.63
2019-02-10T13:57:43.717Z,21.57
2019-02-10T14:00:22.450Z,22.80
2019-02-10T14:02:56.041Z,22.50
2019-02-10T14:05:29.656Z,23.47
2019-02-10T14:08:03.253Z,27.20
2019-02-10T14:10:36.889Z,25.20
2019-02-10T14:13:10.611Z,25.47
2019-02-10T14:15:44.318Z,27.93
2019-02-10T14:18:18.085Z,26.93
2019-02-10T14:20:51.794Z,26.10
2019-02-10T14:23:25.560Z,25.17
2019-02-10T14:25:59.179Z,23.67
2019-02-10T14:28:33.656Z,26.03
2019-02-10T14:31:07.293Z,25.33
2019-02-10T14:33:40.931Z,24.50
2019-02-10T14:36:14.521Z,25.93
2019-02-10T14:38:48.157Z,28.03
2019-02-10T14:41:21.827Z,25.97
2019-02-10T14:43:55.493Z,28.17
2019-02-10T14:46:29.093Z,25.60
2019-02-10T14:49:03.754Z,24.87
2019-02-10T14:51:37.331Z,36.20
2019-02-10T14:54:10.990Z,29.67
2019-02-10T14:56:44.737Z,27.47
2019-02-10T14:59:18.395Z,29.17
2019-02-10T15:01:52.011Z,31.47
2019-02-10T15:04:25.699Z,25.87
2019-02-10T15:06:59.305Z,25.80
2019-02-10T15:09:33.011Z,28.20
2019-02-10T15:12:06.761Z,27.57
2019-02-10T15:14:40.411Z,28.13
2019-02-10T15:17:14.016Z,28.63
2019-02-10T15:19:47.710Z,30.10
2019-02-10T15:22:21.309Z,33.30
2019-02-10T15:24:54.959Z,28.17
2019-02-10T15:27:28.546Z,27.37
2019-02-10T15:30:02.283Z,33.97
2019-02-10T15:32:35.842Z,28.00
2019-02-10T15:35:09.765Z,31.87
2019-02-10T15:37:45.091Z,30.33
2019-02-10T15:40:18.784Z,34.13
2019-02-10T15:42:52.615Z,39.73
2019-02-10T15:45:26.271Z,40.87
2019-02-10T15:47:59.919Z,34.83
2019-02-10T15:50:33.517Z,33.10
2019-02-10T15:53:07.177Z,35.87
2019-02-10T15:55:40.860Z,37.03
2019-02-10T15:58:14.482Z,35.07
2019-02-10T16:00:48.076Z,36.13
2019-02-10T16:03:21.720Z,38.13
2019-02-10T16:05:55.311Z,43.10
2019-02-10T16:08:29.014Z,37.80
2019-02-10T16:11:02.697Z,47.07
2019-02-10T16:13:36.300Z,37.77
2019-02-10T16:16:09.905Z,45.87
2019-02-10T16:18:43.611Z,43.23
2019-02-10T16:21:17.796Z,43.13
2019-02-10T16:23:51.438Z,44.23
2019-02-10T16:26:25.219Z,48.10
2019-02-10T16:28:58.847Z,47.90
2019-02-10T16:31:32.457Z,48.87
2019-02-10T16:34:06.109Z,46.97
2019-02-10T16:36:39.763Z,59.10
2019-02-10T16:39:14.570Z,56.33
2019-02-10T16:41:48.142Z,52.10
2019-02-10T16:44:22.005Z,48.00
2019-02-10T16:46:55.654Z,48.77
2019-02-10T16:49:29.311Z,54.40
2019-02-10T16:52:02.899Z,46.07
2019-02-10T16:54:36.539Z,53.67
2019-02-10T16:57:10.118Z,47.93
2019-02-10T16:59:43.784Z,58.13
2019-02-10T17:02:17.731Z,47.23
2019-02-10T17:04:51.316Z,48.10
2019-02-10T17:07:24.920Z,51.53
2019-02-10T17:09:58.628Z,52.07
2019-02-10T17:12:32.211Z,56.60
2019-02-10T17:15:08.899Z,53.70
2019-02-10T17:17:42.478Z,53.20
2019-02-10T17:20:17.155Z,57.93
2019-02-10T17:22:51.389Z,47.10
2019-02-10T17:25:29.466Z,54.40
2019-02-10T17:28:03.089Z,52.83
2019-02-10T17:30:36.758Z,58.03
2019-02-10T17:36:47.493Z,63.07
2019-02-10T17:39:21.407Z,57.40
2019-02-10T17:41:55.000Z,54.23
2019-02-10T17:44:28.704Z,52.57
2019-02-10T17:47:02.339Z,54.33
2019-02-10T17:53:12.841Z,54.77
2019-02-10T17:55:46.430Z,51.47
2019-02-10T17:58:20.119Z,52.80
2019-02-10T18:00:53.779Z,61.27
2019-02-10T18:03:27.402Z,53.17
2019-02-10T18:06:00.990Z,56.83
2019-02-10T18:08:34.582Z,59.17
2019-02-10T18:11:08.284Z,57.50
2019-02-10T18:13:41.884Z,58.80
2019-02-10T18:16:35.491Z,62.77
2019-02-10T18:19:10.664Z,56.47
2019-02-10T18:21:52.098Z,60.47
2019-02-10T18:24:27.338Z,58.47
2019-02-10T18:27:19.015Z,52.93
2019-02-10T18:30:03.810Z,64.87
2019-02-10T18:32:39.058Z,54.87
2019-02-10T18:35:17.315Z,58.57
2019-02-10T18:37:58.675Z,57.70
2019-02-10T18:40:34.028Z,58.97
2019-02-10T18:43:25.985Z,58.33
2019-02-10T18:46:01.217Z,53.53
2019-02-10T18:52:01.395Z,54.00
2019-02-10T18:54:39.607Z,64.30
2019-02-10T18:57:14.803Z,62.40
2019-02-10T18:59:58.761Z,65.53
2019-02-10T19:02:34.026Z,59.03
2019-02-10T19:09:04.092Z,55.23
2019-02-10T19:11:46.244Z,57.30
2019-02-10T19:14:31.855Z,53.73
2019-02-10T19:17:07.109Z,56.23
2019-02-10T19:19:57.528Z,58.77
2019-02-10T19:22:51.054Z,56.93
2019-02-10T19:25:28.989Z,59.13
2019-02-10T19:28:20.878Z,62.47
2019-02-10T19:30:56.115Z,61.60
2019-02-10T19:33:33.978Z,61.00
2019-02-10T19:36:15.109Z,58.73
2019-02-10T19:38:59.509Z,61.33
2019-02-10T19:41:34.807Z,53.47
2019-02-10T19:44:10.187Z,58.73
2019-02-10T19:46:48.747Z,57.90
2019-02-10T19:49:36.848Z,53.70
2019-02-10T19:52:17.893Z,58.13
2019-02-10T19:54:53.151Z,55.97
2019-02-10T19:57:44.793Z,53.47
2019-02-10T20:00:22.728Z,52.57
2019-02-10T20:03:09.865Z,54.93
2019-02-10T20:05:45.164Z,52.47
2019-02-10T20:08:26.404Z,54.73
2019-02-10T20:11:04.552Z,54.53
2019-02-10T20:13:55.913Z,58.97
2019-02-10T20:16:31.161Z,58.90
2019-02-10T20:19:06.424Z,52.63
2019-02-10T20:21:59.711Z,55.77
2019-02-10T20:24:51.466Z,57.83
2019-02-10T20:27:38.957Z,55.20
2019-02-10T20:30:30.511Z,51.53
2019-02-10T20:33:05.768Z,54.67
2019-02-10T20:39:29.784Z,49.50
2019-02-10T20:42:12.042Z,54.40
2019-02-10T20:44:48.017Z,60.67
2019-02-10T20:47:39.660Z,55.70
2019-02-10T20:50:18.062Z,54.03
2019-02-10T20:53:08.122Z,50.47
2019-02-10T20:55:45.989Z,49.70
2019-02-10T20:58:32.971Z,49.60
2019-02-10T21:01:10.847Z,51.33
2019-02-10T21:03:46.146Z,49.40
2019-02-10T21:06:37.731Z,53.33
2019-02-10T21:09:24.792Z,50.83
2019-02-10T21:12:00.112Z,52.97
2019-02-10T21:14:51.763Z,51.97
2019-02-10T21:17:27.154Z,49.90
2019-02-10T21:23:54.207Z,56.10
2019-02-10T21:26:35.515Z,53.13
2019-02-10T21:29:19.981Z,50.10
2019-02-10T21:32:04.178Z,51.60
2019-02-10T21:34:39.462Z,50.13
2019-02-10T21:38:25.860Z,55.70
2019-02-10T21:41:01.131Z,55.60
2019-02-10T21:43:36.352Z,55.20
2019-02-10T21:46:11.633Z,57.57
2019-02-10T21:48:46.522Z,63.20
2019-02-10T21:54:57.584Z,55.37
2019-02-10T21:57:32.104Z,62.17
2019-02-10T22:00:13.056Z,63.40
2019-02-10T22:02:46.667Z,62.53
2019-02-10T22:05:20.626Z,56.97
2019-02-10T22:07:54.228Z,62.77
2019-02-10T22:10:27.860Z,64.33
2019-02-10T22:13:01.598Z,60.00
2019-02-10T22:15:35.213Z,61.90
2019-02-10T22:18:08.826Z,61.43
2019-02-10T22:20:42.516Z,59.97
2019-02-10T22:23:16.176Z,66.47
2019-02-10T22:25:49.773Z,63.03
2019-02-10T22:28:23.550Z,58.83
2019-02-10T22:30:57.482Z,65.47
2019-02-10T22:33:31.127Z,59.10
2019-02-10T22:36:04.848Z,59.07
2019-02-10T22:38:38.493Z,64.63
2019-02-10T22:41:12.075Z,62.00
2019-02-10T22:43:45.689Z,62.57
2019-02-10T22:46:19.360Z,64.67
2019-02-10T22:48:53.002Z,64.20
2019-02-10T22:51:26.646Z,59.03
2019-02-10T22:54:00.287Z,61.93
2019-02-10T22:56:33.880Z,61.13
2019-02-10T22:59:07.510Z,65.63
2019-02-10T23:01:41.410Z,65.70
2019-02-10T23:04:15.402Z,64.43
2019-02-10T23:06:48.976Z,58.47
2019-02-10T23:09:23.902Z,61.63
2019-02-10T23:11:57.756Z,61.93
2019-02-10T23:14:31.520Z,60.83
2019-02-10T23:17:05.121Z,62.57
2019-02-10T23:19:39.091Z,60.87
2019-02-10T23:22:12.687Z,62.17
2019-02-10T23:24:46.548Z,58.63
2019-02-10T23:27:20.142Z,55.57
2019-02-10T23:29:53.767Z,56.47
2019-02-10T23:32:27.385Z,55.63
2019-02-10T23:35:01.004Z,59.07
2019-02-10T23:37:34.846Z,60.03
2019-02-10T23:40:08.521Z,54.47
2019-02-10T23:42:42.124Z,56.27
2019-02-10T23:45:15.819Z,59.27
2019-02-10T23:47:49.548Z,58.87
2019-02-10T23:50:23.314Z,58.70
2019-02-10T23:52:56.946Z,59.23
2019-02-10T23:55:30.579Z,57.50
2019-02-10T23:58:04.166Z,56.83
